sensor_id;sensor_type;location;lat;lon;timestamp;temperature;humidity
4505;DHT22;2265;48.794;9.520;2023-04-25T00:00:54;9.90;98.00
4505;DHT22;2265;48.794;9.520;2023-04-25T00:03:21;10.00;98.00
4505;DHT22;2265;48.794;9.520;2023-04-25T00:05:50;10.10;98.00
4505;DHT22;2265;48.794;9.520;2023-04-25T00:08:18;10.30;98.00
4505;DHT22;2265;48.794;9.520;2023-04-25T00:10:46;10.30;98.00
4505;DHT22;2265;48.794;9.520;2023-04-25T00:13:14;10.40;98.00
4505;DHT22;2265;48.794;9.520;2023-04-25T00:15:43;10.30;98.00
4505;DHT22;2265;48.794;9.520;2023-04-25T00:18:14;10.30;98.00
4505;DHT22;2265;48.794;9.520;2023-04-25T00:20:41;10.40;98.00
4505;DHT22;2265;48.794;9.520;2023-04-25T00:23:12;10.40;98.00
4505;DHT22;2265;48.794;9.520;2023-04-25T00:25:43;10.50;98.00
4505;DHT22;2265;48.794;9.520;2023-04-25T00:28:10;10.30;98.00
4505;DHT22;2265;48.794;9.520;2023-04-25T00:30:37;10.30;98.00
4505;DHT22;2265;48.794;9.520;2023-04-25T00:33:04;10.20;98.00
4505;DHT22;2265;48.794;9.520;2023-04-25T00:35:33;10.10;98.00
4505;DHT22;2265;48.794;9.520;2023-04-25T00:38:00;10.00;98.00
4505;DHT22;2265;48.794;9.520;2023-04-25T00:40:29;10.00;98.00
4505;DHT22;2265;48.794;9.520;2023-04-25T00:42:56;10.00;98.00
4505;DHT22;2265;48.794;9.520;2023-04-25T00:45:27;10.00;98.00
4505;DHT22;2265;48.794;9.520;2023-04-25T00:47:54;10.10;98.00
4505;DHT22;2265;48.794;9.520;2023-04-25T00:50:22;10.10;98.00
4505;DHT22;2265;48.794;9.520;2023-04-25T00:52:51;10.20;98.00
4505;DHT22;2265;48.794;9.520;2023-04-25T00:55:19;10.20;98.00
4505;DHT22;2265;48.794;9.520;2023-04-25T00:57:46;10.20;98.00
4505;DHT22;2265;48.794;9.520;2023-04-25T01:00:14;10.10;98.00
4505;DHT22;2265;48.794;9.520;2023-04-25T01:02:43;10.00;98.00
4505;DHT22;2265;48.794;9.520;2023-04-25T01:05:11;9.90;98.00
4505;DHT22;2265;48.794;9.520;2023-04-25T01:07:39;9.80;98.00
4505;DHT22;2265;48.794;9.520;2023-04-25T01:10:08;9.70;98.00
4505;DHT22;2265;48.794;9.520;2023-04-25T01:12:36;9.60;98.00
4505;DHT22;2265;48.794;9.520;2023-04-25T01:15:04;9.40;98.00
4505;DHT22;2265;48.794;9.520;2023-04-25T01:17:32;9.50;98.00
4505;DHT22;2265;48.794;9.520;2023-04-25T01:20:02;9.50;98.00
4505;DHT22;2265;48.794;9.520;2023-04-25T01:22:31;9.60;98.00
4505;DHT22;2265;48.794;9.520;2023-04-25T01:24:59;9.60;98.00
4505;DHT22;2265;48.794;9.520;2023-04-25T01:27:27;9.60;98.00
4505;DHT22;2265;48.794;9.520;2023-04-25T01:29:54;9.80;98.00
4505;DHT22;2265;48.794;9.520;2023-04-25T01:32:23;9.80;98.00
4505;DHT22;2265;48.794;9.520;2023-04-25T01:34:51;9.90;98.00
4505;DHT22;2265;48.794;9.520;2023-04-25T01:37:18;10.00;98.00
4505;DHT22;2265;48.794;9.520;2023-04-25T01:39:47;9.80;98.00
4505;DHT22;2265;48.794;9.520;2023-04-25T01:42:15;9.80;98.00
4505;DHT22;2265;48.794;9.520;2023-04-25T01:44:42;9.80;98.00
4505;DHT22;2265;48.794;9.520;2023-04-25T01:47:09;9.90;98.00
4505;DHT22;2265;48.794;9.520;2023-04-25T01:49:37;9.90;98.00
4505;DHT22;2265;48.794;9.520;2023-04-25T01:52:04;10.00;98.00
4505;DHT22;2265;48.794;9.520;2023-04-25T01:54:31;10.10;98.00
4505;DHT22;2265;48.794;9.520;2023-04-25T01:57:00;10.20;98.00
4505;DHT22;2265;48.794;9.520;2023-04-25T01:59:27;10.20;98.00
4505;DHT22;2265;48.794;9.520;2023-04-25T02:01:54;10.20;98.00
4505;DHT22;2265;48.794;9.520;2023-04-25T02:04:21;10.20;98.00
4505;DHT22;2265;48.794;9.520;2023-04-25T02:09:17;10.10;98.00
4505;DHT22;2265;48.794;9.520;2023-04-25T02:11:44;10.10;98.00
4505;DHT22;2265;48.794;9.520;2023-04-25T02:14:13;9.90;98.00
4505;DHT22;2265;48.794;9.520;2023-04-25T02:16:40;9.80;98.00
4505;DHT22;2265;48.794;9.520;2023-04-25T02:19:12;9.80;98.00
4505;DHT22;2265;48.794;9.520;2023-04-25T02:21:39;9.70;98.00
4505;DHT22;2265;48.794;9.520;2023-04-25T02:24:08;9.80;98.00
4505;DHT22;2265;48.794;9.520;2023-04-25T02:26:35;9.80;98.00
4505;DHT22;2265;48.794;9.520;2023-04-25T02:29:02;9.80;98.00
4505;DHT22;2265;48.794;9.520;2023-04-25T02:31:30;9.70;98.00
4505;DHT22;2265;48.794;9.520;2023-04-25T02:33:57;9.80;98.00
4505;DHT22;2265;48.794;9.520;2023-04-25T02:36:25;9.80;98.00
4505;DHT22;2265;48.794;9.520;2023-04-25T02:39:00;9.70;98.00
4505;DHT22;2265;48.794;9.520;2023-04-25T02:41:30;9.70;98.00
4505;DHT22;2265;48.794;9.520;2023-04-25T02:43:57;9.80;98.00
4505;DHT22;2265;48.794;9.520;2023-04-25T02:46:24;9.70;98.00
4505;DHT22;2265;48.794;9.520;2023-04-25T02:48:53;9.80;98.00
4505;DHT22;2265;48.794;9.520;2023-04-25T02:51:20;9.90;98.00
4505;DHT22;2265;48.794;9.520;2023-04-25T02:53:47;9.70;98.00
4505;DHT22;2265;48.794;9.520;2023-04-25T02:56:14;9.60;98.00
4505;DHT22;2265;48.794;9.520;2023-04-25T02:58:41;9.60;98.00
4505;DHT22;2265;48.794;9.520;2023-04-25T03:01:09;9.60;98.00
4505;DHT22;2265;48.794;9.520;2023-04-25T03:03:36;9.60;98.00
4505;DHT22;2265;48.794;9.520;2023-04-25T03:06:04;9.70;98.00
4505;DHT22;2265;48.794;9.520;2023-04-25T03:11:00;9.60;98.00
4505;DHT22;2265;48.794;9.520;2023-04-25T03:13:27;9.70;98.00
4505;DHT22;2265;48.794;9.520;2023-04-25T03:15:55;9.70;98.00
4505;DHT22;2265;48.794;9.520;2023-04-25T03:18:22;9.80;98.00
4505;DHT22;2265;48.794;9.520;2023-04-25T03:20:50;9.80;98.00
4505;DHT22;2265;48.794;9.520;2023-04-25T03:23:18;9.60;98.00
4505;DHT22;2265;48.794;9.520;2023-04-25T03:25:45;9.50;98.00
4505;DHT22;2265;48.794;9.520;2023-04-25T03:28:13;9.40;98.00
4505;DHT22;2265;48.794;9.520;2023-04-25T03:30:40;9.40;98.00
4505;DHT22;2265;48.794;9.520;2023-04-25T03:33:07;9.50;98.00
4505;DHT22;2265;48.794;9.520;2023-04-25T03:35:34;9.60;98.00
4505;DHT22;2265;48.794;9.520;2023-04-25T03:38:01;9.80;98.00
4505;DHT22;2265;48.794;9.520;2023-04-25T03:40:29;9.90;98.00
4505;DHT22;2265;48.794;9.520;2023-04-25T03:42:56;9.90;98.00
4505;DHT22;2265;48.794;9.520;2023-04-25T03:45:23;10.00;98.00
4505;DHT22;2265;48.794;9.520;2023-04-25T03:47:50;10.00;98.00
4505;DHT22;2265;48.794;9.520;2023-04-25T03:50:18;10.00;98.00
4505;DHT22;2265;48.794;9.520;2023-04-25T03:52:45;9.90;98.00
4505;DHT22;2265;48.794;9.520;2023-04-25T03:55:12;9.80;98.00
4505;DHT22;2265;48.794;9.520;2023-04-25T03:57:40;9.60;98.00
4505;DHT22;2265;48.794;9.520;2023-04-25T04:00:08;9.60;98.00
4505;DHT22;2265;48.794;9.520;2023-04-25T04:02:35;9.70;98.00
4505;DHT22;2265;48.794;9.520;2023-04-25T04:05:03;9.90;98.00
4505;DHT22;2265;48.794;9.520;2023-04-25T04:07:31;9.80;98.00
4505;DHT22;2265;48.794;9.520;2023-04-25T04:09:59;9.80;98.00
4505;DHT22;2265;48.794;9.520;2023-04-25T04:12:26;9.80;98.00
4505;DHT22;2265;48.794;9.520;2023-04-25T04:14:55;9.90;98.00
4505;DHT22;2265;48.794;9.520;2023-04-25T04:17:22;9.80;98.00
4505;DHT22;2265;48.794;9.520;2023-04-25T04:19:49;9.80;98.00
4505;DHT22;2265;48.794;9.520;2023-04-25T04:22:16;9.90;98.00
4505;DHT22;2265;48.794;9.520;2023-04-25T04:24:45;9.80;98.00
4505;DHT22;2265;48.794;9.520;2023-04-25T04:27:12;9.70;98.00
4505;DHT22;2265;48.794;9.520;2023-04-25T04:29:39;9.70;98.00
4505;DHT22;2265;48.794;9.520;2023-04-25T04:32:08;9.70;98.00
4505;DHT22;2265;48.794;9.520;2023-04-25T04:34:35;9.50;98.00
4505;DHT22;2265;48.794;9.520;2023-04-25T04:37:03;9.40;98.00
4505;DHT22;2265;48.794;9.520;2023-04-25T04:39:30;9.40;98.00
4505;DHT22;2265;48.794;9.520;2023-04-25T04:41:58;9.30;98.00
4505;DHT22;2265;48.794;9.520;2023-04-25T04:44:27;9.30;98.00
4505;DHT22;2265;48.794;9.520;2023-04-25T04:46:54;9.30;98.00
4505;DHT22;2265;48.794;9.520;2023-04-25T04:49:22;9.40;98.00
4505;DHT22;2265;48.794;9.520;2023-04-25T04:51:49;9.60;98.00
4505;DHT22;2265;48.794;9.520;2023-04-25T04:54:16;9.70;98.00
4505;DHT22;2265;48.794;9.520;2023-04-25T04:56:43;9.70;98.00
4505;DHT22;2265;48.794;9.520;2023-04-25T04:59:12;9.60;98.00
4505;DHT22;2265;48.794;9.520;2023-04-25T05:01:39;9.60;98.00
4505;DHT22;2265;48.794;9.520;2023-04-25T05:04:06;9.80;98.00
4505;DHT22;2265;48.794;9.520;2023-04-25T05:06:34;9.70;98.00
4505;DHT22;2265;48.794;9.520;2023-04-25T05:09:02;9.60;98.00
4505;DHT22;2265;48.794;9.520;2023-04-25T05:11:29;9.60;98.00
4505;DHT22;2265;48.794;9.520;2023-04-25T05:13:56;9.70;98.00
4505;DHT22;2265;48.794;9.520;2023-04-25T05:16:24;9.60;98.00
4505;DHT22;2265;48.794;9.520;2023-04-25T05:18:51;9.60;98.00
4505;DHT22;2265;48.794;9.520;2023-04-25T05:21:19;9.80;98.00
4505;DHT22;2265;48.794;9.520;2023-04-25T05:23:47;9.90;98.00
4505;DHT22;2265;48.794;9.520;2023-04-25T05:26:15;9.90;98.00
4505;DHT22;2265;48.794;9.520;2023-04-25T05:28:42;10.10;98.00
4505;DHT22;2265;48.794;9.520;2023-04-25T05:31:10;10.00;98.00
4505;DHT22;2265;48.794;9.520;2023-04-25T05:33:37;10.10;98.00
4505;DHT22;2265;48.794;9.520;2023-04-25T05:36:04;10.20;98.00
4505;DHT22;2265;48.794;9.520;2023-04-25T05:38:32;10.30;98.00
4505;DHT22;2265;48.794;9.520;2023-04-25T05:41:00;10.40;98.00
4505;DHT22;2265;48.794;9.520;2023-04-25T05:43:27;10.40;98.00
4505;DHT22;2265;48.794;9.520;2023-04-25T05:45:54;10.40;98.00
4505;DHT22;2265;48.794;9.520;2023-04-25T05:48:21;10.40;98.00
4505;DHT22;2265;48.794;9.520;2023-04-25T05:50:48;10.50;98.00
4505;DHT22;2265;48.794;9.520;2023-04-25T05:53:17;10.60;98.00
4505;DHT22;2265;48.794;9.520;2023-04-25T05:55:44;10.60;98.00
4505;DHT22;2265;48.794;9.520;2023-04-25T05:58:13;10.70;98.00
4505;DHT22;2265;48.794;9.520;2023-04-25T06:00:40;10.80;98.00
4505;DHT22;2265;48.794;9.520;2023-04-25T06:03:07;10.80;98.00
4505;DHT22;2265;48.794;9.520;2023-04-25T06:05:35;10.70;98.00
4505;DHT22;2265;48.794;9.520;2023-04-25T06:08:02;10.70;98.00
4505;DHT22;2265;48.794;9.520;2023-04-25T06:10:29;10.70;98.00
4505;DHT22;2265;48.794;9.520;2023-04-25T06:12:56;10.60;98.00
4505;DHT22;2265;48.794;9.520;2023-04-25T06:15:25;10.60;98.00
4505;DHT22;2265;48.794;9.520;2023-04-25T06:20:20;10.40;98.00
4505;DHT22;2265;48.794;9.520;2023-04-25T06:22:49;10.40;98.00
4505;DHT22;2265;48.794;9.520;2023-04-25T06:25:17;10.40;98.00
4505;DHT22;2265;48.794;9.520;2023-04-25T06:27:44;10.30;98.00
4505;DHT22;2265;48.794;9.520;2023-04-25T06:30:12;10.10;98.00
4505;DHT22;2265;48.794;9.520;2023-04-25T06:32:40;10.00;98.00
4505;DHT22;2265;48.794;9.520;2023-04-25T06:35:08;10.00;98.00
4505;DHT22;2265;48.794;9.520;2023-04-25T06:37:35;10.00;98.00
4505;DHT22;2265;48.794;9.520;2023-04-25T06:40:03;10.00;98.00
4505;DHT22;2265;48.794;9.520;2023-04-25T06:42:30;10.10;98.00
4505;DHT22;2265;48.794;9.520;2023-04-25T06:45:00;10.20;98.00
4505;DHT22;2265;48.794;9.520;2023-04-25T06:47:27;10.20;98.00
4505;DHT22;2265;48.794;9.520;2023-04-25T06:49:56;10.30;98.00
4505;DHT22;2265;48.794;9.520;2023-04-25T06:52:23;10.40;98.00
4505;DHT22;2265;48.794;9.520;2023-04-25T06:54:50;10.50;98.00
4505;DHT22;2265;48.794;9.520;2023-04-25T06:57:17;10.60;98.00
4505;DHT22;2265;48.794;9.520;2023-04-25T06:59:46;10.70;98.00
4505;DHT22;2265;48.794;9.520;2023-04-25T07:02:13;10.70;98.00
4505;DHT22;2265;48.794;9.520;2023-04-25T07:04:40;10.70;98.00
4505;DHT22;2265;48.794;9.520;2023-04-25T07:07:09;10.90;98.00
4505;DHT22;2265;48.794;9.520;2023-04-25T07:09:36;10.80;98.00
4505;DHT22;2265;48.794;9.520;2023-04-25T07:12:04;10.90;98.00
4505;DHT22;2265;48.794;9.520;2023-04-25T07:14:31;11.00;98.00
4505;DHT22;2265;48.794;9.520;2023-04-25T07:16:58;10.90;98.00
4505;DHT22;2265;48.794;9.520;2023-04-25T07:19:25;10.80;98.00
4505;DHT22;2265;48.794;9.520;2023-04-25T07:21:52;10.90;98.00
4505;DHT22;2265;48.794;9.520;2023-04-25T07:24:21;10.90;98.00
4505;DHT22;2265;48.794;9.520;2023-04-25T07:26:49;11.10;98.00
4505;DHT22;2265;48.794;9.520;2023-04-25T07:29:16;11.20;98.00
4505;DHT22;2265;48.794;9.520;2023-04-25T07:31:43;11.30;98.00
4505;DHT22;2265;48.794;9.520;2023-04-25T07:34:10;11.20;98.00
4505;DHT22;2265;48.794;9.520;2023-04-25T07:36:37;11.00;98.00
4505;DHT22;2265;48.794;9.520;2023-04-25T07:39:04;10.90;98.00
4505;DHT22;2265;48.794;9.520;2023-04-25T07:41:32;11.00;98.00
4505;DHT22;2265;48.794;9.520;2023-04-25T07:44:00;11.20;98.00
4505;DHT22;2265;48.794;9.520;2023-04-25T07:46:27;11.20;98.00
4505;DHT22;2265;48.794;9.520;2023-04-25T07:48:55;11.20;98.00
4505;DHT22;2265;48.794;9.520;2023-04-25T07:51:22;11.10;98.00
4505;DHT22;2265;48.794;9.520;2023-04-25T07:53:49;11.10;98.00
4505;DHT22;2265;48.794;9.520;2023-04-25T07:56:16;11.00;98.00
4505;DHT22;2265;48.794;9.520;2023-04-25T07:58:45;11.10;98.00
4505;DHT22;2265;48.794;9.520;2023-04-25T08:01:12;11.20;98.00
4505;DHT22;2265;48.794;9.520;2023-04-25T08:03:39;11.20;98.00
4505;DHT22;2265;48.794;9.520;2023-04-25T08:06:07;11.10;98.00
4505;DHT22;2265;48.794;9.520;2023-04-25T08:08:50;10.90;98.00
4505;DHT22;2265;48.794;9.520;2023-04-25T08:11:17;10.70;98.00
4505;DHT22;2265;48.794;9.520;2023-04-25T08:13:46;10.60;98.00
4505;DHT22;2265;48.794;9.520;2023-04-25T08:16:13;10.60;98.00
4505;DHT22;2265;48.794;9.520;2023-04-25T08:18:40;10.40;98.00
4505;DHT22;2265;48.794;9.520;2023-04-25T08:21:07;10.30;98.00
4505;DHT22;2265;48.794;9.520;2023-04-25T08:23:36;10.30;98.00
4505;DHT22;2265;48.794;9.520;2023-04-25T08:26:04;10.20;98.00
4505;DHT22;2265;48.794;9.520;2023-04-25T08:28:31;10.20;98.00
4505;DHT22;2265;48.794;9.520;2023-04-25T08:31:00;10.20;98.00
4505;DHT22;2265;48.794;9.520;2023-04-25T08:33:30;10.20;98.00
4505;DHT22;2265;48.794;9.520;2023-04-25T08:35:58;10.20;98.00
4505;DHT22;2265;48.794;9.520;2023-04-25T08:38:25;10.20;98.00
4505;DHT22;2265;48.794;9.520;2023-04-25T08:40:54;10.20;98.00
4505;DHT22;2265;48.794;9.520;2023-04-25T08:43:23;10.10;98.00
4505;DHT22;2265;48.794;9.520;2023-04-25T08:45:53;10.20;98.00
4505;DHT22;2265;48.794;9.520;2023-04-25T08:48:24;10.20;98.00
4505;DHT22;2265;48.794;9.520;2023-04-25T08:50:55;10.20;98.00
4505;DHT22;2265;48.794;9.520;2023-04-25T08:53:25;10.40;98.00
4505;DHT22;2265;48.794;9.520;2023-04-25T08:55:54;10.50;98.00
4505;DHT22;2265;48.794;9.520;2023-04-25T08:58:23;10.60;98.00
4505;DHT22;2265;48.794;9.520;2023-04-25T09:03:18;10.40;98.00
4505;DHT22;2265;48.794;9.520;2023-04-25T09:05:47;10.40;98.00
4505;DHT22;2265;48.794;9.520;2023-04-25T09:08:14;10.40;98.00
4505;DHT22;2265;48.794;9.520;2023-04-25T09:10:41;10.40;98.00
4505;DHT22;2265;48.794;9.520;2023-04-25T09:13:09;10.30;98.00
4505;DHT22;2265;48.794;9.520;2023-04-25T09:15:48;10.30;98.00
4505;DHT22;2265;48.794;9.520;2023-04-25T09:18:23;10.30;98.00
4505;DHT22;2265;48.794;9.520;2023-04-25T09:20:53;10.30;98.00
4505;DHT22;2265;48.794;9.520;2023-04-25T09:23:21;10.30;98.00
4505;DHT22;2265;48.794;9.520;2023-04-25T09:25:50;10.30;98.00
4505;DHT22;2265;48.794;9.520;2023-04-25T09:28:23;10.30;98.00
4505;DHT22;2265;48.794;9.520;2023-04-25T09:30:55;10.20;98.00
4505;DHT22;2265;48.794;9.520;2023-04-25T09:33:28;10.10;98.00
4505;DHT22;2265;48.794;9.520;2023-04-25T09:36:03;10.10;98.00
4505;DHT22;2265;48.794;9.520;2023-04-25T09:38:40;10.00;98.00
4505;DHT22;2265;48.794;9.520;2023-04-25T09:41:08;9.80;98.00
4505;DHT22;2265;48.794;9.520;2023-04-25T09:43:35;9.80;98.00
4505;DHT22;2265;48.794;9.520;2023-04-25T09:46:04;9.70;98.00
4505;DHT22;2265;48.794;9.520;2023-04-25T09:48:34;9.80;98.00
4505;DHT22;2265;48.794;9.520;2023-04-25T09:51:07;9.80;98.00
4505;DHT22;2265;48.794;9.520;2023-04-25T09:53:37;9.80;98.00
4505;DHT22;2265;48.794;9.520;2023-04-25T09:56:06;9.90;98.00
4505;DHT22;2265;48.794;9.520;2023-04-25T09:58:34;10.00;98.00
4505;DHT22;2265;48.794;9.520;2023-04-25T10:01:03;9.90;98.00
4505;DHT22;2265;48.794;9.520;2023-04-25T10:03:33;10.00;98.00
4505;DHT22;2265;48.794;9.520;2023-04-25T10:06:02;10.20;98.00
4505;DHT22;2265;48.794;9.520;2023-04-25T10:08:33;10.10;98.00
4505;DHT22;2265;48.794;9.520;2023-04-25T10:11:08;9.90;98.00
4505;DHT22;2265;48.794;9.520;2023-04-25T10:13:35;9.80;98.00
4505;DHT22;2265;48.794;9.520;2023-04-25T10:16:04;9.80;98.00
4505;DHT22;2265;48.794;9.520;2023-04-25T10:18:32;9.70;98.00
4505;DHT22;2265;48.794;9.520;2023-04-25T10:21:01;9.80;98.00
4505;DHT22;2265;48.794;9.520;2023-04-25T10:23:32;9.80;98.00
4505;DHT22;2265;48.794;9.520;2023-04-25T10:26:00;9.80;98.00
4505;DHT22;2265;48.794;9.520;2023-04-25T10:28:28;9.90;98.00
4505;DHT22;2265;48.794;9.520;2023-04-25T10:30:58;9.80;98.00
4505;DHT22;2265;48.794;9.520;2023-04-25T10:33:35;9.70;98.00
4505;DHT22;2265;48.794;9.520;2023-04-25T10:36:32;9.60;98.00
4505;DHT22;2265;48.794;9.520;2023-04-25T10:39:04;9.50;98.00
4505;DHT22;2265;48.794;9.520;2023-04-25T10:41:52;9.40;98.00
4505;DHT22;2265;48.794;9.520;2023-04-25T10:44:19;9.30;98.00
4505;DHT22;2265;48.794;9.520;2023-04-25T10:46:46;9.20;98.00
4505;DHT22;2265;48.794;9.520;2023-04-25T10:49:29;9.40;98.00
4505;DHT22;2265;48.794;9.520;2023-04-25T10:52:13;9.40;98.00
4505;DHT22;2265;48.794;9.520;2023-04-25T10:54:43;9.30;98.00
4505;DHT22;2265;48.794;9.520;2023-04-25T10:57:37;9.30;98.00
4505;DHT22;2265;48.794;9.520;2023-04-25T11:00:10;9.30;98.00
4505;DHT22;2265;48.794;9.520;2023-04-25T11:02:41;9.30;98.00
4505;DHT22;2265;48.794;9.520;2023-04-25T11:05:09;9.30;98.00
4505;DHT22;2265;48.794;9.520;2023-04-25T11:07:39;9.50;98.00
4505;DHT22;2265;48.794;9.520;2023-04-25T11:10:12;9.50;98.00
4505;DHT22;2265;48.794;9.520;2023-04-25T11:12:41;9.30;98.00
4505;DHT22;2265;48.794;9.520;2023-04-25T11:15:08;9.00;98.00
4505;DHT22;2265;48.794;9.520;2023-04-25T11:17:36;8.70;98.00
4505;DHT22;2265;48.794;9.520;2023-04-25T11:20:06;8.60;98.00
4505;DHT22;2265;48.794;9.520;2023-04-25T11:22:37;8.50;98.00
4505;DHT22;2265;48.794;9.520;2023-04-25T11:25:05;8.40;98.00
4505;DHT22;2265;48.794;9.520;2023-04-25T11:27:37;8.40;98.00
4505;DHT22;2265;48.794;9.520;2023-04-25T11:30:15;8.40;98.00
4505;DHT22;2265;48.794;9.520;2023-04-25T11:32:42;8.30;98.00
4505;DHT22;2265;48.794;9.520;2023-04-25T11:35:09;8.40;98.00
4505;DHT22;2265;48.794;9.520;2023-04-25T11:37:39;8.50;98.00
4505;DHT22;2265;48.794;9.520;2023-04-25T11:40:08;8.40;98.00
4505;DHT22;2265;48.794;9.520;2023-04-25T11:42:43;8.30;98.00
4505;DHT22;2265;48.794;9.520;2023-04-25T11:47:44;8.50;98.00
4505;DHT22;2265;48.794;9.520;2023-04-25T11:52:40;8.50;98.00
4505;DHT22;2265;48.794;9.520;2023-04-25T11:55:09;8.40;98.00
4505;DHT22;2265;48.794;9.520;2023-04-25T11:57:39;8.40;98.00
4505;DHT22;2265;48.794;9.520;2023-04-25T12:00:09;8.40;98.00
4505;DHT22;2265;48.794;9.520;2023-04-25T12:02:40;8.40;98.00
4505;DHT22;2265;48.794;9.520;2023-04-25T12:05:07;8.50;98.00
4505;DHT22;2265;48.794;9.520;2023-04-25T12:07:35;8.70;98.00
4505;DHT22;2265;48.794;9.520;2023-04-25T12:10:07;8.70;98.00
4505;DHT22;2265;48.794;9.520;2023-04-25T12:12:35;8.90;98.00
4505;DHT22;2265;48.794;9.520;2023-04-25T12:15:15;9.20;98.00
4505;DHT22;2265;48.794;9.520;2023-04-25T12:17:45;9.50;98.00
4505;DHT22;2265;48.794;9.520;2023-04-25T12:20:14;9.60;98.00
4505;DHT22;2265;48.794;9.520;2023-04-25T12:22:41;9.80;98.00
4505;DHT22;2265;48.794;9.520;2023-04-25T12:25:11;9.90;98.00
4505;DHT22;2265;48.794;9.520;2023-04-25T12:27:39;10.10;98.00
4505;DHT22;2265;48.794;9.520;2023-04-25T12:30:08;10.00;98.00
4505;DHT22;2265;48.794;9.520;2023-04-25T12:32:37;10.20;98.00
4505;DHT22;2265;48.794;9.520;2023-04-25T12:35:05;10.20;98.00
4505;DHT22;2265;48.794;9.520;2023-04-25T12:37:33;10.20;98.00
4505;DHT22;2265;48.794;9.520;2023-04-25T12:40:00;10.20;98.00
4505;DHT22;2265;48.794;9.520;2023-04-25T12:42:28;10.40;98.00
4505;DHT22;2265;48.794;9.520;2023-04-25T12:44:55;10.60;98.00
4505;DHT22;2265;48.794;9.520;2023-04-25T12:47:23;10.80;98.00
4505;DHT22;2265;48.794;9.520;2023-04-25T12:49:52;10.80;98.00
4505;DHT22;2265;48.794;9.520;2023-04-25T12:52:19;10.80;98.00
4505;DHT22;2265;48.794;9.520;2023-04-25T12:54:46;10.80;98.00
4505;DHT22;2265;48.794;9.520;2023-04-25T12:57:13;10.80;98.00
4505;DHT22;2265;48.794;9.520;2023-04-25T12:59:41;10.80;98.00
4505;DHT22;2265;48.794;9.520;2023-04-25T13:02:08;10.70;98.00
4505;DHT22;2265;48.794;9.520;2023-04-25T13:04:35;10.60;98.00
4505;DHT22;2265;48.794;9.520;2023-04-25T13:07:03;10.30;98.00
4505;DHT22;2265;48.794;9.520;2023-04-25T13:09:30;10.30;98.00
4505;DHT22;2265;48.794;9.520;2023-04-25T13:11:57;10.30;98.00
4505;DHT22;2265;48.794;9.520;2023-04-25T13:14:24;10.30;98.00
4505;DHT22;2265;48.794;9.520;2023-04-25T13:16:52;10.30;98.00
4505;DHT22;2265;48.794;9.520;2023-04-25T13:19:20;10.20;98.00
4505;DHT22;2265;48.794;9.520;2023-04-25T13:21:48;10.30;98.00
4505;DHT22;2265;48.794;9.520;2023-04-25T13:24:16;10.20;98.00
4505;DHT22;2265;48.794;9.520;2023-04-25T13:26:44;10.30;98.00
4505;DHT22;2265;48.794;9.520;2023-04-25T13:29:12;10.40;98.00
4505;DHT22;2265;48.794;9.520;2023-04-25T13:31:39;10.60;98.00
4505;DHT22;2265;48.794;9.520;2023-04-25T13:34:06;11.00;98.00
4505;DHT22;2265;48.794;9.520;2023-04-25T13:36:33;11.60;98.00
4505;DHT22;2265;48.794;9.520;2023-04-25T13:39:00;12.40;98.00
4505;DHT22;2265;48.794;9.520;2023-04-25T13:41:31;13.20;98.00
4505;DHT22;2265;48.794;9.520;2023-04-25T13:43:58;13.90;98.00
4505;DHT22;2265;48.794;9.520;2023-04-25T13:46:26;14.40;98.00
4505;DHT22;2265;48.794;9.520;2023-04-25T13:48:53;14.40;98.00
4505;DHT22;2265;48.794;9.520;2023-04-25T13:51:20;13.80;98.00
4505;DHT22;2265;48.794;9.520;2023-04-25T13:53:49;13.20;98.00
4505;DHT22;2265;48.794;9.520;2023-04-25T13:56:16;12.60;98.00
4505;DHT22;2265;48.794;9.520;2023-04-25T13:58:46;12.40;98.00
4505;DHT22;2265;48.794;9.520;2023-04-25T14:01:13;12.20;98.00
4505;DHT22;2265;48.794;9.520;2023-04-25T14:03:40;12.20;98.00
4505;DHT22;2265;48.794;9.520;2023-04-25T14:06:08;12.50;98.00
4505;DHT22;2265;48.794;9.520;2023-04-25T14:08:35;13.00;98.00
4505;DHT22;2265;48.794;9.520;2023-04-25T14:11:02;13.20;98.00
4505;DHT22;2265;48.794;9.520;2023-04-25T14:13:29;13.00;98.00
4505;DHT22;2265;48.794;9.520;2023-04-25T14:15:58;12.90;98.00
4505;DHT22;2265;48.794;9.520;2023-04-25T14:18:25;12.40;98.00
4505;DHT22;2265;48.794;9.520;2023-04-25T14:20:52;12.00;98.00
4505;DHT22;2265;48.794;9.520;2023-04-25T14:23:20;11.90;98.00
4505;DHT22;2265;48.794;9.520;2023-04-25T14:25:48;11.80;98.00
4505;DHT22;2265;48.794;9.520;2023-04-25T14:28:15;11.40;98.00
4505;DHT22;2265;48.794;9.520;2023-04-25T14:30:42;11.40;98.00
4505;DHT22;2265;48.794;9.520;2023-04-25T14:33:11;11.30;98.00
4505;DHT22;2265;48.794;9.520;2023-04-25T14:35:39;11.20;98.00
4505;DHT22;2265;48.794;9.520;2023-04-25T14:38:07;11.30;98.00
4505;DHT22;2265;48.794;9.520;2023-04-25T14:40:34;11.60;98.00
4505;DHT22;2265;48.794;9.520;2023-04-25T14:43:01;12.10;98.00
4505;DHT22;2265;48.794;9.520;2023-04-25T14:45:29;12.90;98.00
4505;DHT22;2265;48.794;9.520;2023-04-25T14:47:56;13.90;98.00
4505;DHT22;2265;48.794;9.520;2023-04-25T14:50:24;14.60;98.00
4505;DHT22;2265;48.794;9.520;2023-04-25T14:52:51;14.50;98.00
4505;DHT22;2265;48.794;9.520;2023-04-25T14:55:18;14.60;98.00
4505;DHT22;2265;48.794;9.520;2023-04-25T14:57:46;14.30;98.00
4505;DHT22;2265;48.794;9.520;2023-04-25T15:00:13;14.00;98.00
4505;DHT22;2265;48.794;9.520;2023-04-25T15:02:43;13.90;98.00
4505;DHT22;2265;48.794;9.520;2023-04-25T15:05:10;13.90;98.00
4505;DHT22;2265;48.794;9.520;2023-04-25T15:07:38;13.60;98.00
4505;DHT22;2265;48.794;9.520;2023-04-25T15:10:06;13.90;98.00
4505;DHT22;2265;48.794;9.520;2023-04-25T15:12:39;14.20;98.00
4505;DHT22;2265;48.794;9.520;2023-04-25T15:15:07;14.30;98.00
4505;DHT22;2265;48.794;9.520;2023-04-25T15:17:37;13.90;98.00
4505;DHT22;2265;48.794;9.520;2023-04-25T15:20:05;14.10;98.00
4505;DHT22;2265;48.794;9.520;2023-04-25T15:22:32;14.70;98.00
4505;DHT22;2265;48.794;9.520;2023-04-25T15:25:01;15.00;98.00
4505;DHT22;2265;48.794;9.520;2023-04-25T15:27:28;14.70;98.00
4505;DHT22;2265;48.794;9.520;2023-04-25T15:29:56;14.80;98.00
4505;DHT22;2265;48.794;9.520;2023-04-25T15:32:23;14.90;98.00
4505;DHT22;2265;48.794;9.520;2023-04-25T15:34:50;14.40;98.00
4505;DHT22;2265;48.794;9.520;2023-04-25T15:37:17;14.20;98.00
4505;DHT22;2265;48.794;9.520;2023-04-25T15:39:44;13.90;98.00
4505;DHT22;2265;48.794;9.520;2023-04-25T15:42:14;13.40;98.00
4505;DHT22;2265;48.794;9.520;2023-04-25T15:44:41;13.10;98.00
4505;DHT22;2265;48.794;9.520;2023-04-25T15:47:08;13.40;98.00
4505;DHT22;2265;48.794;9.520;2023-04-25T15:49:43;13.60;98.00
4505;DHT22;2265;48.794;9.520;2023-04-25T15:52:11;13.50;98.00
4505;DHT22;2265;48.794;9.520;2023-04-25T15:54:38;13.10;98.00
4505;DHT22;2265;48.794;9.520;2023-04-25T15:57:05;12.80;98.00
4505;DHT22;2265;48.794;9.520;2023-04-25T15:59:39;12.80;98.00
4505;DHT22;2265;48.794;9.520;2023-04-25T16:02:08;12.90;98.00
4505;DHT22;2265;48.794;9.520;2023-04-25T16:04:35;12.90;98.00
4505;DHT22;2265;48.794;9.520;2023-04-25T16:07:03;13.00;98.00
4505;DHT22;2265;48.794;9.520;2023-04-25T16:09:30;12.80;98.00
4505;DHT22;2265;48.794;9.520;2023-04-25T16:11:57;12.90;98.00
4505;DHT22;2265;48.794;9.520;2023-04-25T16:14:26;12.80;98.00
4505;DHT22;2265;48.794;9.520;2023-04-25T16:16:54;12.80;98.00
4505;DHT22;2265;48.794;9.520;2023-04-25T16:19:21;12.80;98.00
4505;DHT22;2265;48.794;9.520;2023-04-25T16:21:50;12.80;98.00
4505;DHT22;2265;48.794;9.520;2023-04-25T16:24:17;12.70;98.00
4505;DHT22;2265;48.794;9.520;2023-04-25T16:26:44;12.80;98.00
4505;DHT22;2265;48.794;9.520;2023-04-25T16:29:12;13.10;98.00